sensor_id;sensor_type;location;lat;lon;timestamp;P1;durP1;ratioP1;P2;durP2;ratioP2
52878;SDS011;38747;53.140;6.498;2022-08-19T00:00:15;8.95;;;4.75;;
52878;SDS011;38747;53.140;6.498;2022-08-19T00:05:08;6.40;;;4.60;;
52878;SDS011;38747;53.140;6.498;2022-08-19T00:07:35;7.18;;;4.60;;
52878;SDS011;38747;53.140;6.498;2022-08-19T00:10:02;6.55;;;4.68;;
52878;SDS011;38747;53.140;6.498;2022-08-19T00:12:29;7.32;;;5.05;;
52878;SDS011;38747;53.140;6.498;2022-08-19T00:17:20;5.80;;;4.55;;
52878;SDS011;38747;53.140;6.498;2022-08-19T00:22:12;6.00;;;4.75;;
52878;SDS011;38747;53.140;6.498;2022-08-19T00:27:03;8.95;;;5.25;;
52878;SDS011;38747;53.140;6.498;2022-08-19T00:29:30;5.82;;;4.78;;
52878;SDS011;38747;53.140;6.498;2022-08-19T00:34:23;6.15;;;5.45;;
52878;SDS011;38747;53.140;6.498;2022-08-19T00:36:51;6.68;;;5.25;;
52878;SDS011;38747;53.140;6.498;2022-08-19T00:39:16;6.38;;;5.65;;
52878;SDS011;38747;53.140;6.498;2022-08-19T00:44:13;7.18;;;5.93;;
52878;SDS011;38747;53.140;6.498;2022-08-19T00:46:42;10.00;;;6.53;;
52878;SDS011;38747;53.140;6.498;2022-08-19T00:49:10;10.55;;;6.70;;
52878;SDS011;38747;53.140;6.498;2022-08-19T00:51:41;7.85;;;6.40;;
52878;SDS011;38747;53.140;6.498;2022-08-19T00:54:09;8.13;;;6.40;;
52878;SDS011;38747;53.140;6.498;2022-08-19T00:59:01;8.75;;;5.50;;
52878;SDS011;38747;53.140;6.498;2022-08-19T01:01:28;7.10;;;5.60;;
52878;SDS011;38747;53.140;6.498;2022-08-19T01:03:54;8.38;;;5.60;;
52878;SDS011;38747;53.140;6.498;2022-08-19T01:08:45;6.75;;;5.30;;
52878;SDS011;38747;53.140;6.498;2022-08-19T01:13:36;6.10;;;4.88;;
52878;SDS011;38747;53.140;6.498;2022-08-19T01:18:29;7.72;;;4.95;;
52878;SDS011;38747;53.140;6.498;2022-08-19T01:20:58;7.30;;;5.70;;
52878;SDS011;38747;53.140;6.498;2022-08-19T01:23:27;7.60;;;6.07;;
52878;SDS011;38747;53.140;6.498;2022-08-19T01:26:08;6.78;;;5.82;;
52878;SDS011;38747;53.140;6.498;2022-08-19T01:28:40;8.05;;;5.78;;
52878;SDS011;38747;53.140;6.498;2022-08-19T01:31:08;6.32;;;5.63;;
52878;SDS011;38747;53.140;6.498;2022-08-19T01:33:40;7.53;;;5.43;;
52878;SDS011;38747;53.140;6.498;2022-08-19T01:36:21;6.55;;;5.22;;
52878;SDS011;38747;53.140;6.498;2022-08-19T01:38:51;10.77;;;6.03;;
52878;SDS011;38747;53.140;6.498;2022-08-19T01:41:17;9.98;;;5.57;;
52878;SDS011;38747;53.140;6.498;2022-08-19T01:43:43;17.65;;;7.35;;
52878;SDS011;38747;53.140;6.498;2022-08-19T01:48:36;11.77;;;7.13;;
52878;SDS011;38747;53.140;6.498;2022-08-19T01:51:03;8.98;;;6.25;;
52878;SDS011;38747;53.140;6.498;2022-08-19T01:53:29;8.77;;;6.15;;
52878;SDS011;38747;53.140;6.498;2022-08-19T01:58:23;9.25;;;6.55;;
52878;SDS011;38747;53.140;6.498;2022-08-19T02:00:52;10.45;;;6.65;;
52878;SDS011;38747;53.140;6.498;2022-08-19T02:05:43;8.77;;;6.20;;
52878;SDS011;38747;53.140;6.498;2022-08-19T02:08:10;7.68;;;5.47;;
52878;SDS011;38747;53.140;6.498;2022-08-19T02:10:38;8.25;;;5.80;;
52878;SDS011;38747;53.140;6.498;2022-08-19T02:13:06;8.70;;;6.22;;
52878;SDS011;38747;53.140;6.498;2022-08-19T02:15:32;7.25;;;5.65;;
52878;SDS011;38747;53.140;6.498;2022-08-19T02:20:23;7.72;;;5.05;;
52878;SDS011;38747;53.140;6.498;2022-08-19T02:22:49;7.65;;;5.20;;
52878;SDS011;38747;53.140;6.498;2022-08-19T02:27:41;5.68;;;4.70;;
52878;SDS011;38747;53.140;6.498;2022-08-19T02:30:08;5.53;;;4.80;;
52878;SDS011;38747;53.140;6.498;2022-08-19T02:32:36;5.30;;;4.50;;
52878;SDS011;38747;53.140;6.498;2022-08-19T02:35:02;7.07;;;4.72;;
52878;SDS011;38747;53.140;6.498;2022-08-19T02:40:12;6.40;;;4.00;;
52878;SDS011;38747;53.140;6.498;2022-08-19T02:42:38;5.72;;;4.47;;
52878;SDS011;38747;53.140;6.498;2022-08-19T02:45:05;7.38;;;4.20;;
52878;SDS011;38747;53.140;6.498;2022-08-19T02:47:32;7.88;;;4.25;;
52878;SDS011;38747;53.140;6.498;2022-08-19T02:49:58;5.28;;;4.40;;
52878;SDS011;38747;53.140;6.498;2022-08-19T02:52:25;5.95;;;3.90;;
52878;SDS011;38747;53.140;6.498;2022-08-19T02:54:52;5.70;;;4.53;;
52878;SDS011;38747;53.140;6.498;2022-08-19T02:57:17;6.93;;;4.82;;
52878;SDS011;38747;53.140;6.498;2022-08-19T03:02:08;7.20;;;4.85;;
52878;SDS011;38747;53.140;6.498;2022-08-19T03:04:34;6.97;;;4.22;;
52878;SDS011;38747;53.140;6.498;2022-08-19T03:09:25;6.45;;;4.50;;
52878;SDS011;38747;53.140;6.498;2022-08-19T03:11:51;6.03;;;4.63;;
52878;SDS011;38747;53.140;6.498;2022-08-19T03:16:44;7.00;;;5.22;;
52878;SDS011;38747;53.140;6.498;2022-08-19T03:19:15;7.20;;;5.10;;
52878;SDS011;38747;53.140;6.498;2022-08-19T03:21:42;6.97;;;4.97;;
52878;SDS011;38747;53.140;6.498;2022-08-19T03:24:09;8.65;;;4.63;;
52878;SDS011;38747;53.140;6.498;2022-08-19T03:26:38;7.60;;;4.70;;
52878;SDS011;38747;53.140;6.498;2022-08-19T03:29:08;10.27;;;5.65;;
52878;SDS011;38747;53.140;6.498;2022-08-19T03:31:36;10.07;;;6.90;;
52878;SDS011;38747;53.140;6.498;2022-08-19T03:34:03;8.07;;;5.82;;
52878;SDS011;38747;53.140;6.498;2022-08-19T03:36:29;9.15;;;5.63;;
52878;SDS011;38747;53.140;6.498;2022-08-19T03:38:56;7.97;;;5.68;;
52878;SDS011;38747;53.140;6.498;2022-08-19T03:41:27;10.95;;;6.43;;
52878;SDS011;38747;53.140;6.498;2022-08-19T03:43:58;10.35;;;5.35;;
52878;SDS011;38747;53.140;6.498;2022-08-19T03:53:52;9.05;;;5.72;;
52878;SDS011;38747;53.140;6.498;2022-08-19T03:56:20;7.82;;;5.00;;
52878;SDS011;38747;53.140;6.498;2022-08-19T03:58:46;8.30;;;5.35;;
52878;SDS011;38747;53.140;6.498;2022-08-19T04:01:13;7.10;;;4.95;;
52878;SDS011;38747;53.140;6.498;2022-08-19T04:03:41;8.60;;;5.80;;
52878;SDS011;38747;53.140;6.498;2022-08-19T04:06:14;8.98;;;5.90;;
52878;SDS011;38747;53.140;6.498;2022-08-19T04:09:00;9.35;;;5.85;;
52878;SDS011;38747;53.140;6.498;2022-08-19T04:11:28;7.38;;;5.43;;
52878;SDS011;38747;53.140;6.498;2022-08-19T04:13:56;10.35;;;5.97;;
52878;SDS011;38747;53.140;6.498;2022-08-19T04:16:23;6.40;;;5.43;;
52878;SDS011;38747;53.140;6.498;2022-08-19T04:18:53;7.28;;;5.50;;
52878;SDS011;38747;53.140;6.498;2022-08-19T04:23:46;6.40;;;4.78;;
52878;SDS011;38747;53.140;6.498;2022-08-19T04:26:17;7.25;;;4.95;;
52878;SDS011;38747;53.140;6.498;2022-08-19T04:28:44;8.95;;;5.97;;
52878;SDS011;38747;53.140;6.498;2022-08-19T04:31:24;10.00;;;5.82;;
52878;SDS011;38747;53.140;6.498;2022-08-19T04:33:52;10.52;;;6.38;;
52878;SDS011;38747;53.140;6.498;2022-08-19T04:36:23;8.85;;;6.15;;
52878;SDS011;38747;53.140;6.498;2022-08-19T04:38:57;8.82;;;5.65;;
52878;SDS011;38747;53.140;6.498;2022-08-19T04:41:26;7.97;;;5.55;;
52878;SDS011;38747;53.140;6.498;2022-08-19T04:44:10;7.95;;;5.15;;
52878;SDS011;38747;53.140;6.498;2022-08-19T04:46:37;7.15;;;5.35;;
52878;SDS011;38747;53.140;6.498;2022-08-19T04:49:04;7.88;;;5.32;;
52878;SDS011;38747;53.140;6.498;2022-08-19T04:51:31;9.57;;;5.53;;
52878;SDS011;38747;53.140;6.498;2022-08-19T04:53:58;9.07;;;5.22;;
52878;SDS011;38747;53.140;6.498;2022-08-19T04:56:25;9.23;;;5.47;;
52878;SDS011;38747;53.140;6.498;2022-08-19T04:58:52;10.23;;;5.43;;
52878;SDS011;38747;53.140;6.498;2022-08-19T05:01:21;9.75;;;5.63;;
52878;SDS011;38747;53.140;6.498;2022-08-19T05:03:52;8.77;;;5.55;;
52878;SDS011;38747;53.140;6.498;2022-08-19T05:06:19;12.80;;;6.38;;
52878;SDS011;38747;53.140;6.498;2022-08-19T05:08:46;9.43;;;6.18;;
52878;SDS011;38747;53.140;6.498;2022-08-19T05:13:37;8.02;;;5.80;;
52878;SDS011;38747;53.140;6.498;2022-08-19T05:18:29;9.85;;;5.80;;
52878;SDS011;38747;53.140;6.498;2022-08-19T05:21:14;8.43;;;5.63;;
52878;SDS011;38747;53.140;6.498;2022-08-19T05:24:02;9.82;;;5.53;;
52878;SDS011;38747;53.140;6.498;2022-08-19T05:26:31;7.13;;;5.38;;
52878;SDS011;38747;53.140;6.498;2022-08-19T05:28:57;8.07;;;5.95;;
52878;SDS011;38747;53.140;6.498;2022-08-19T05:31:23;9.18;;;6.32;;
52878;SDS011;38747;53.140;6.498;2022-08-19T05:33:48;10.07;;;6.32;;
52878;SDS011;38747;53.140;6.498;2022-08-19T05:36:14;8.40;;;6.18;;
52878;SDS011;38747;53.140;6.498;2022-08-19T05:38:40;9.65;;;6.65;;
52878;SDS011;38747;53.140;6.498;2022-08-19T05:43:33;11.85;;;7.93;;
52878;SDS011;38747;53.140;6.498;2022-08-19T05:48:24;12.77;;;8.93;;
52878;SDS011;38747;53.140;6.498;2022-08-19T05:50:51;16.75;;;9.77;;
52878;SDS011;38747;53.140;6.498;2022-08-19T05:53:17;14.77;;;9.82;;
52878;SDS011;38747;53.140;6.498;2022-08-19T05:55:43;14.85;;;9.73;;
52878;SDS011;38747;53.140;6.498;2022-08-19T05:58:08;18.38;;;10.25;;
52878;SDS011;38747;53.140;6.498;2022-08-19T06:03:00;15.27;;;10.48;;
52878;SDS011;38747;53.140;6.498;2022-08-19T06:05:29;18.15;;;10.35;;
52878;SDS011;38747;53.140;6.498;2022-08-19T06:07:55;18.70;;;12.02;;
52878;SDS011;38747;53.140;6.498;2022-08-19T06:10:21;21.73;;;11.57;;
52878;SDS011;38747;53.140;6.498;2022-08-19T06:15:13;21.75;;;13.18;;
52878;SDS011;38747;53.140;6.498;2022-08-19T06:17:39;18.95;;;11.88;;
52878;SDS011;38747;53.140;6.498;2022-08-19T06:20:07;24.10;;;13.60;;
52878;SDS011;38747;53.140;6.498;2022-08-19T06:22:42;20.88;;;13.02;;
52878;SDS011;38747;53.140;6.498;2022-08-19T06:25:09;23.52;;;14.82;;
52878;SDS011;38747;53.140;6.498;2022-08-19T06:27:36;21.98;;;14.30;;
52878;SDS011;38747;53.140;6.498;2022-08-19T06:32:28;18.20;;;12.25;;
52878;SDS011;38747;53.140;6.498;2022-08-19T06:37:20;18.73;;;13.23;;
52878;SDS011;38747;53.140;6.498;2022-08-19T06:39:46;22.58;;;12.65;;
52878;SDS011;38747;53.140;6.498;2022-08-19T06:42:12;23.25;;;13.38;;
52878;SDS011;38747;53.140;6.498;2022-08-19T06:44:41;22.95;;;13.70;;
52878;SDS011;38747;53.140;6.498;2022-08-19T06:47:09;27.65;;;14.25;;
52878;SDS011;38747;53.140;6.498;2022-08-19T06:49:37;19.50;;;13.45;;
52878;SDS011;38747;53.140;6.498;2022-08-19T06:54:29;19.35;;;12.85;;
52878;SDS011;38747;53.140;6.498;2022-08-19T06:59:27;22.00;;;14.95;;
52878;SDS011;38747;53.140;6.498;2022-08-19T07:01:54;23.30;;;13.75;;
52878;SDS011;38747;53.140;6.498;2022-08-19T07:04:22;26.55;;;14.15;;
52878;SDS011;38747;53.140;6.498;2022-08-19T07:06:50;24.00;;;14.90;;
52878;SDS011;38747;53.140;6.498;2022-08-19T07:09:21;24.27;;;15.00;;
52878;SDS011;38747;53.140;6.498;2022-08-19T07:14:15;25.80;;;15.25;;
52878;SDS011;38747;53.140;6.498;2022-08-19T07:16:43;22.70;;;14.70;;
52878;SDS011;38747;53.140;6.498;2022-08-19T07:19:10;20.70;;;14.00;;
52878;SDS011;38747;53.140;6.498;2022-08-19T07:21:36;21.63;;;14.48;;
52878;SDS011;38747;53.140;6.498;2022-08-19T07:26:29;17.35;;;12.52;;
52878;SDS011;38747;53.140;6.498;2022-08-19T07:28:57;22.13;;;14.85;;
52878;SDS011;38747;53.140;6.498;2022-08-19T07:31:24;20.35;;;14.63;;
52878;SDS011;38747;53.140;6.498;2022-08-19T07:33:52;24.42;;;15.75;;
52878;SDS011;38747;53.140;6.498;2022-08-19T07:36:21;20.48;;;14.43;;
52878;SDS011;38747;53.140;6.498;2022-08-19T07:38:49;18.27;;;12.40;;
52878;SDS011;38747;53.140;6.498;2022-08-19T07:41:17;22.85;;;14.55;;
52878;SDS011;38747;53.140;6.498;2022-08-19T07:43:46;20.17;;;13.95;;
52878;SDS011;38747;53.140;6.498;2022-08-19T07:46:12;20.70;;;14.43;;
52878;SDS011;38747;53.140;6.498;2022-08-19T07:48:39;18.40;;;13.23;;
52878;SDS011;38747;53.140;6.498;2022-08-19T07:51:07;21.45;;;14.38;;
52878;SDS011;38747;53.140;6.498;2022-08-19T07:53:34;19.52;;;13.70;;
52878;SDS011;38747;53.140;6.498;2022-08-19T07:56:01;18.95;;;13.70;;
52878;SDS011;38747;53.140;6.498;2022-08-19T07:58:38;15.63;;;12.00;;
52878;SDS011;38747;53.140;6.498;2022-08-19T08:01:05;19.10;;;13.30;;
52878;SDS011;38747;53.140;6.498;2022-08-19T08:03:32;18.33;;;12.82;;
52878;SDS011;38747;53.140;6.498;2022-08-19T08:06:16;17.35;;;14.43;;
52878;SDS011;38747;53.140;6.498;2022-08-19T08:09:02;21.38;;;13.85;;
52878;SDS011;38747;53.140;6.498;2022-08-19T08:11:41;14.95;;;11.80;;
52878;SDS011;38747;53.140;6.498;2022-08-19T08:14:14;18.38;;;12.52;;
52878;SDS011;38747;53.140;6.498;2022-08-19T08:16:42;17.13;;;13.52;;
52878;SDS011;38747;53.140;6.498;2022-08-19T08:19:10;16.88;;;11.35;;
52878;SDS011;38747;53.140;6.498;2022-08-19T08:21:36;27.65;;;12.63;;
52878;SDS011;38747;53.140;6.498;2022-08-19T08:26:28;19.05;;;14.00;;
52878;SDS011;38747;53.140;6.498;2022-08-19T08:31:19;17.67;;;13.85;;
52878;SDS011;38747;53.140;6.498;2022-08-19T08:36:11;18.90;;;13.68;;
52878;SDS011;38747;53.140;6.498;2022-08-19T08:38:39;16.88;;;12.15;;
52878;SDS011;38747;53.140;6.498;2022-08-19T08:43:59;18.77;;;10.88;;
52878;SDS011;38747;53.140;6.498;2022-08-19T08:49:42;12.57;;;10.55;;
52878;SDS011;38747;53.140;6.498;2022-08-19T08:52:24;10.93;;;8.50;;
52878;SDS011;38747;53.140;6.498;2022-08-19T08:54:53;14.32;;;11.77;;
52878;SDS011;38747;53.140;6.498;2022-08-19T09:00:00;12.23;;;9.40;;
52878;SDS011;38747;53.140;6.498;2022-08-19T09:02:30;15.77;;;11.48;;
52878;SDS011;38747;53.140;6.498;2022-08-19T09:07:33;14.30;;;11.45;;
52878;SDS011;38747;53.140;6.498;2022-08-19T09:13:13;14.23;;;11.43;;
52878;SDS011;38747;53.140;6.498;2022-08-19T09:15:58;14.10;;;10.63;;
52878;SDS011;38747;53.140;6.498;2022-08-19T09:18:42;14.45;;;10.45;;
52878;SDS011;38747;53.140;6.498;2022-08-19T09:21:23;12.95;;;10.02;;
52878;SDS011;38747;53.140;6.498;2022-08-19T09:23:50;11.80;;;9.65;;
52878;SDS011;38747;53.140;6.498;2022-08-19T09:26:17;13.90;;;11.15;;
52878;SDS011;38747;53.140;6.498;2022-08-19T09:28:46;13.80;;;11.48;;
52878;SDS011;38747;53.140;6.498;2022-08-19T09:31:14;14.27;;;11.48;;
52878;SDS011;38747;53.140;6.498;2022-08-19T09:33:41;13.90;;;10.95;;
52878;SDS011;38747;53.140;6.498;2022-08-19T09:36:10;11.98;;;9.82;;
52878;SDS011;38747;53.140;6.498;2022-08-19T09:38:37;13.88;;;10.30;;
52878;SDS011;38747;53.140;6.498;2022-08-19T09:41:08;11.20;;;9.82;;
52878;SDS011;38747;53.140;6.498;2022-08-19T09:43:37;12.32;;;10.27;;
52878;SDS011;38747;53.140;6.498;2022-08-19T09:46:03;17.27;;;12.23;;
52878;SDS011;38747;53.140;6.498;2022-08-19T09:48:40;14.57;;;10.80;;
52878;SDS011;38747;53.140;6.498;2022-08-19T09:51:08;13.32;;;10.10;;
52878;SDS011;38747;53.140;6.498;2022-08-19T09:53:35;15.73;;;11.15;;
52878;SDS011;38747;53.140;6.498;2022-08-19T09:56:03;13.35;;;9.80;;
52878;SDS011;38747;53.140;6.498;2022-08-19T09:58:30;12.23;;;10.32;;
52878;SDS011;38747;53.140;6.498;2022-08-19T10:00:57;12.20;;;10.10;;
52878;SDS011;38747;53.140;6.498;2022-08-19T10:03:24;11.05;;;8.98;;
52878;SDS011;38747;53.140;6.498;2022-08-19T10:05:50;15.32;;;12.00;;
52878;SDS011;38747;53.140;6.498;2022-08-19T10:08:21;14.73;;;9.52;;
52878;SDS011;38747;53.140;6.498;2022-08-19T10:10:51;12.48;;;9.88;;
52878;SDS011;38747;53.140;6.498;2022-08-19T10:13:19;11.20;;;9.13;;
52878;SDS011;38747;53.140;6.498;2022-08-19T10:15:50;14.15;;;10.52;;
52878;SDS011;38747;53.140;6.498;2022-08-19T10:18:18;13.02;;;11.20;;
52878;SDS011;38747;53.140;6.498;2022-08-19T10:20:46;13.48;;;10.90;;
52878;SDS011;38747;53.140;6.498;2022-08-19T10:23:12;14.13;;;12.05;;
52878;SDS011;38747;53.140;6.498;2022-08-19T10:25:38;12.75;;;10.75;;
52878;SDS011;38747;53.140;6.498;2022-08-19T10:28:04;12.90;;;9.95;;
52878;SDS011;38747;53.140;6.498;2022-08-19T10:30:32;12.98;;;11.07;;
52878;SDS011;38747;53.140;6.498;2022-08-19T10:32:58;13.18;;;10.02;;
52878;SDS011;38747;53.140;6.498;2022-08-19T10:35:24;13.73;;;11.13;;
52878;SDS011;38747;53.140;6.498;2022-08-19T10:37:54;15.18;;;12.20;;
52878;SDS011;38747;53.140;6.498;2022-08-19T10:40:24;13.75;;;10.45;;
52878;SDS011;38747;53.140;6.498;2022-08-19T10:42:50;12.35;;;10.38;;
52878;SDS011;38747;53.140;6.498;2022-08-19T10:45:16;14.05;;;11.82;;
52878;SDS011;38747;53.140;6.498;2022-08-19T10:47:42;15.05;;;11.73;;
52878;SDS011;38747;53.140;6.498;2022-08-19T10:50:07;15.43;;;11.38;;
52878;SDS011;38747;53.140;6.498;2022-08-19T10:52:51;16.45;;;13.10;;
52878;SDS011;38747;53.140;6.498;2022-08-19T10:55:20;16.10;;;13.00;;
52878;SDS011;38747;53.140;6.498;2022-08-19T10:58:16;14.07;;;12.57;;
52878;SDS011;38747;53.140;6.498;2022-08-19T11:00:59;13.38;;;10.98;;
52878;SDS011;38747;53.140;6.498;2022-08-19T11:03:25;14.07;;;12.07;;
52878;SDS011;38747;53.140;6.498;2022-08-19T11:06:06;12.35;;;10.35;;
52878;SDS011;38747;53.140;6.498;2022-08-19T11:08:33;14.65;;;12.02;;
52878;SDS011;38747;53.140;6.498;2022-08-19T11:11:00;13.05;;;10.38;;
52878;SDS011;38747;53.140;6.498;2022-08-19T11:13:28;14.68;;;11.25;;
52878;SDS011;38747;53.140;6.498;2022-08-19T11:16:02;14.98;;;11.07;;
52878;SDS011;38747;53.140;6.498;2022-08-19T11:18:40;11.82;;;10.63;;
52878;SDS011;38747;53.140;6.498;2022-08-19T11:23:45;13.25;;;9.88;;
52878;SDS011;38747;53.140;6.498;2022-08-19T11:26:13;13.80;;;12.32;;
52878;SDS011;38747;53.140;6.498;2022-08-19T11:28:39;12.20;;;10.75;;
52878;SDS011;38747;53.140;6.498;2022-08-19T11:31:09;16.23;;;14.45;;
52878;SDS011;38747;53.140;6.498;2022-08-19T11:33:40;15.05;;;13.02;;
52878;SDS011;38747;53.140;6.498;2022-08-19T11:36:06;14.38;;;12.30;;
52878;SDS011;38747;53.140;6.498;2022-08-19T11:38:32;14.13;;;12.63;;
52878;SDS011;38747;53.140;6.498;2022-08-19T11:41:01;16.75;;;13.05;;
52878;SDS011;38747;53.140;6.498;2022-08-19T11:43:29;14.95;;;12.18;;
52878;SDS011;38747;53.140;6.498;2022-08-19T11:45:56;16.80;;;11.85;;
52878;SDS011;38747;53.140;6.498;2022-08-19T11:48:22;12.45;;;10.75;;
52878;SDS011;38747;53.140;6.498;2022-08-19T11:50:52;11.10;;;9.80;;
52878;SDS011;38747;53.140;6.498;2022-08-19T11:53:21;13.02;;;9.50;;
52878;SDS011;38747;53.140;6.498;2022-08-19T11:55:47;9.35;;;8.10;;
52878;SDS011;38747;53.140;6.498;2022-08-19T11:58:14;11.57;;;9.38;;
52878;SDS011;38747;53.140;6.498;2022-08-19T12:00:41;11.02;;;9.40;;
52878;SDS011;38747;53.140;6.498;2022-08-19T12:03:07;10.02;;;9.02;;
52878;SDS011;38747;53.140;6.498;2022-08-19T12:05:33;10.90;;;8.82;;
52878;SDS011;38747;53.140;6.498;2022-08-19T12:08:01;12.65;;;9.57;;
52878;SDS011;38747;53.140;6.498;2022-08-19T12:10:27;12.10;;;9.95;;
52878;SDS011;38747;53.140;6.498;2022-08-19T12:12:53;12.77;;;8.07;;
52878;SDS011;38747;53.140;6.498;2022-08-19T12:15:18;15.50;;;8.38;;
52878;SDS011;38747;53.140;6.498;2022-08-19T12:17:44;14.45;;;9.10;;
52878;SDS011;38747;53.140;6.498;2022-08-19T12:20:10;14.43;;;8.10;;
52878;SDS011;38747;53.140;6.498;2022-08-19T12:22:38;9.80;;;7.63;;
52878;SDS011;38747;53.140;6.498;2022-08-19T12:25:06;11.80;;;9.30;;
52878;SDS011;38747;53.140;6.498;2022-08-19T12:27:33;9.27;;;7.93;;
52878;SDS011;38747;53.140;6.498;2022-08-19T12:30:00;11.77;;;9.05;;
52878;SDS011;38747;53.140;6.498;2022-08-19T12:32:27;13.60;;;9.05;;
52878;SDS011;38747;53.140;6.498;2022-08-19T12:34:52;13.10;;;9.25;;
52878;SDS011;38747;53.140;6.498;2022-08-19T12:37:18;10.68;;;8.88;;
52878;SDS011;38747;53.140;6.498;2022-08-19T12:39:44;12.55;;;8.10;;
52878;SDS011;38747;53.140;6.498;2022-08-19T12:42:10;12.27;;;8.30;;
52878;SDS011;38747;53.140;6.498;2022-08-19T12:44:37;9.27;;;7.15;;
52878;SDS011;38747;53.140;6.498;2022-08-19T12:47:05;8.75;;;6.65;;
52878;SDS011;38747;53.140;6.498;2022-08-19T12:49:31;15.20;;;6.68;;
52878;SDS011;38747;53.140;6.498;2022-08-19T12:51:59;11.10;;;7.70;;
52878;SDS011;38747;53.140;6.498;2022-08-19T12:54:25;10.23;;;7.07;;
52878;SDS011;38747;53.140;6.498;2022-08-19T12:56:52;7.45;;;6.57;;
52878;SDS011;38747;53.140;6.498;2022-08-19T12:59:17;9.07;;;6.70;;
52878;SDS011;38747;53.140;6.498;2022-08-19T13:01:44;9.55;;;7.15;;
52878;SDS011;38747;53.140;6.498;2022-08-19T13:04:10;9.68;;;7.85;;
52878;SDS011;38747;53.140;6.498;2022-08-19T13:06:36;9.25;;;7.75;;
52878;SDS011;38747;53.140;6.498;2022-08-19T13:09:03;11.50;;;8.45;;
52878;SDS011;38747;53.140;6.498;2022-08-19T13:11:29;11.32;;;8.77;;
52878;SDS011;38747;53.140;6.498;2022-08-19T13:13:59;11.32;;;8.25;;
52878;SDS011;38747;53.140;6.498;2022-08-19T13:16:26;13.88;;;11.18;;
52878;SDS011;38747;53.140;6.498;2022-08-19T13:18:53;11.75;;;9.40;;
52878;SDS011;38747;53.140;6.498;2022-08-19T13:21:20;14.82;;;12.65;;
52878;SDS011;38747;53.140;6.498;2022-08-19T13:23:48;20.08;;;13.48;;
52878;SDS011;38747;53.140;6.498;2022-08-19T13:26:14;17.20;;;13.80;;
52878;SDS011;38747;53.140;6.498;2022-08-19T13:28:40;18.15;;;12.85;;
52878;SDS011;38747;53.140;6.498;2022-08-19T13:31:26;17.80;;;12.63;;
52878;SDS011;38747;53.140;6.498;2022-08-19T13:36:38;16.92;;;13.77;;
52878;SDS011;38747;53.140;6.498;2022-08-19T13:39:05;22.15;;;15.10;;
52878;SDS011;38747;53.140;6.498;2022-08-19T13:41:32;15.32;;;11.82;;
52878;SDS011;38747;53.140;6.498;2022-08-19T13:43:59;16.25;;;11.90;;
52878;SDS011;38747;53.140;6.498;2022-08-19T13:46:24;14.20;;;9.73;;
52878;SDS011;38747;53.140;6.498;2022-08-19T13:48:52;16.48;;;9.75;;
52878;SDS011;38747;53.140;6.498;2022-08-19T13:51:18;14.63;;;9.65;;
52878;SDS011;38747;53.140;6.498;2022-08-19T13:53:43;12.10;;;8.90;;
52878;SDS011;38747;53.140;6.498;2022-08-19T13:56:10;18.20;;;8.65;;
52878;SDS011;38747;53.140;6.498;2022-08-19T13:58:38;12.43;;;9.00;;
52878;SDS011;38747;53.140;6.498;2022-08-19T14:01:04;14.15;;;9.48;;
52878;SDS011;38747;53.140;6.498;2022-08-19T14:03:30;17.00;;;10.35;;
52878;SDS011;38747;53.140;6.498;2022-08-19T14:05:57;17.42;;;9.20;;
52878;SDS011;38747;53.140;6.498;2022-08-19T14:08:24;34.28;;;11.15;;
52878;SDS011;38747;53.140;6.498;2022-08-19T14:10:52;15.90;;;9.70;;
52878;SDS011;38747;53.140;6.498;2022-08-19T14:13:21;15.02;;;9.63;;
52878;SDS011;38747;53.140;6.498;2022-08-19T14:15:48;17.40;;;11.82;;
52878;SDS011;38747;53.140;6.498;2022-08-19T14:18:15;14.98;;;11.32;;
52878;SDS011;38747;53.140;6.498;2022-08-19T14:20:41;25.17;;;12.00;;
52878;SDS011;38747;53.140;6.498;2022-08-19T14:23:07;19.92;;;13.45;;
52878;SDS011;38747;53.140;6.498;2022-08-19T14:25:33;17.00;;;10.98;;
52878;SDS011;38747;53.140;6.498;2022-08-19T14:27:59;19.02;;;12.38;;
52878;SDS011;38747;53.140;6.498;2022-08-19T14:30:35;18.10;;;12.63;;
52878;SDS011;38747;53.140;6.498;2022-08-19T14:33:02;17.95;;;12.52;;
52878;SDS011;38747;53.140;6.498;2022-08-19T14:35:30;22.13;;;11.60;;
52878;SDS011;38747;53.140;6.498;2022-08-19T14:38:01;20.45;;;13.57;;
52878;SDS011;38747;53.140;6.498;2022-08-19T14:40:28;21.38;;;12.80;;
52878;SDS011;38747;53.140;6.498;2022-08-19T14:42:59;24.48;;;13.10;;
52878;SDS011;38747;53.140;6.498;2022-08-19T14:45:30;19.25;;;12.88;;
52878;SDS011;38747;53.140;6.498;2022-08-19T14:47:58;19.08;;;11.23;;
52878;SDS011;38747;53.140;6.498;2022-08-19T14:50:25;23.95;;;12.48;;
52878;SDS011;38747;53.140;6.498;2022-08-19T14:52:56;16.80;;;10.63;;
52878;SDS011;38747;53.140;6.498;2022-08-19T14:55:23;17.90;;;10.20;;
52878;SDS011;38747;53.140;6.498;2022-08-19T14:57:49;12.65;;;9.50;;
52878;SDS011;38747;53.140;6.498;2022-08-19T15:00:15;18.20;;;12.10;;
52878;SDS011;38747;53.140;6.498;2022-08-19T15:02:41;18.95;;;11.27;;
52878;SDS011;38747;53.140;6.498;2022-08-19T15:05:09;18.25;;;11.15;;
52878;SDS011;38747;53.140;6.498;2022-08-19T15:07:35;16.00;;;11.50;;
52878;SDS011;38747;53.140;6.498;2022-08-19T15:10:02;17.00;;;9.77;;
52878;SDS011;38747;53.140;6.498;2022-08-19T15:12:28;9.15;;;5.13;;
52878;SDS011;38747;53.140;6.498;2022-08-19T15:14:54;7.30;;;4.63;;
52878;SDS011;38747;53.140;6.498;2022-08-19T15:17:20;5.30;;;3.80;;
52878;SDS011;38747;53.140;6.498;2022-08-19T15:19:45;5.22;;;3.60;;
52878;SDS011;38747;53.140;6.498;2022-08-19T15:22:11;7.03;;;3.88;;
52878;SDS011;38747;53.140;6.498;2022-08-19T15:24:37;3.15;;;2.70;;
52878;SDS011;38747;53.140;6.498;2022-08-19T15:27:03;7.05;;;3.72;;
52878;SDS011;38747;53.140;6.498;2022-08-19T15:29:30;7.75;;;5.10;;
52878;SDS011;38747;53.140;6.498;2022-08-19T15:31:57;11.65;;;7.32;;
52878;SDS011;38747;53.140;6.498;2022-08-19T15:34:23;11.25;;;7.20;;
52878;SDS011;38747;53.140;6.498;2022-08-19T15:36:51;12.20;;;8.30;;
52878;SDS011;38747;53.140;6.498;2022-08-19T15:39:17;9.23;;;6.82;;
52878;SDS011;38747;53.140;6.498;2022-08-19T15:41:43;11.48;;;6.47;;
52878;SDS011;38747;53.140;6.498;2022-08-19T15:44:11;12.75;;;6.78;;
52878;SDS011;38747;53.140;6.498;2022-08-19T15:46:40;8.95;;;6.00;;
52878;SDS011;38747;53.140;6.498;2022-08-19T15:49:07;10.68;;;7.05;;
52878;SDS011;38747;53.140;6.498;2022-08-19T15:51:35;9.93;;;7.13;;
52878;SDS011;38747;53.140;6.498;2022-08-19T15:54:03;10.70;;;6.82;;
52878;SDS011;38747;53.140;6.498;2022-08-19T15:56:31;12.73;;;7.80;;
52878;SDS011;38747;53.140;6.498;2022-08-19T15:59:15;12.23;;;7.45;;
52878;SDS011;38747;53.140;6.498;2022-08-19T16:01:59;10.05;;;6.97;;
52878;SDS011;38747;53.140;6.498;2022-08-19T16:04:43;9.35;;;6.32;;
52878;SDS011;38747;53.140;6.498;2022-08-19T16:07:27;9.95;;;6.40;;
52878;SDS011;38747;53.140;6.498;2022-08-19T16:09:53;9.00;;;6.40;;
52878;SDS011;38747;53.140;6.498;2022-08-19T16:12:19;10.48;;;6.45;;
52878;SDS011;38747;53.140;6.498;2022-08-19T16:14:44;10.77;;;7.53;;
52878;SDS011;38747;53.140;6.498;2022-08-19T16:17:11;9.95;;;7.22;;
52878;SDS011;38747;53.140;6.498;2022-08-19T16:19:37;11.73;;;7.50;;
52878;SDS011;38747;53.140;6.498;2022-08-19T16:22:03;11.05;;;7.57;;
52878;SDS011;38747;53.140;6.498;2022-08-19T16:24:30;13.10;;;8.98;;
52878;SDS011;38747;53.140;6.498;2022-08-19T16:26:57;15.30;;;8.40;;
52878;SDS011;38747;53.140;6.498;2022-08-19T16:29:25;11.85;;;8.32;;
52878;SDS011;38747;53.140;6.498;2022-08-19T16:31:52;14.35;;;8.80;;